Time;durP1;ratioP1;P1;durP2;ratioP2;P2;SDS_P1;SDS_P2;PMS_P1;PMS_P2;Temp;Humidity;BMP_temperature;BMP_pressure;BME280_temperature;BME280_humidity;BME280_pressure;Samples;Min_cycle;Max_cycle;Signal;HPM_P1;HPM_P2
2021/07/09 00:01:11;;;;;;;10.73;8.82;;;;;;;29.42;60.78;99663.94;4379732;32;20120;-86
2021/07/09 00:03:37;;;;;;;10.27;8.27;;;;;;;29.40;60.77;99660.59;4377591;32;20124;-87
2021/07/09 00:06:03;;;;;;;12.27;9.45;;;;;;;29.30;60.76;99660.78;4377460;32;20130;-87
2021/07/09 00:08:28;;;;;;;10.60;8.95;;;;;;;29.25;60.77;99656.94;4377181;32;20113;-87
2021/07/09 00:10:54;;;;;;;12.90;8.93;;;;;;;29.31;60.76;99658.94;4364748;32;20383;-87
2021/07/09 00:13:19;;;;;;;13.30;8.88;;;;;;;29.19;60.76;99660.31;4377004;32;21322;-87
2021/07/09 00:15:44;;;;;;;12.13;9.35;;;;;;;29.19;60.76;99650.44;4389429;32;25227;-87
2021/07/09 00:18:10;;;;;;;14.27;9.30;;;;;;;29.13;60.76;99653.81;4364821;32;20153;-87
2021/07/09 00:20:35;;;;;;;15.10;9.90;;;;;;;29.12;60.76;99659.34;4378844;32;28159;-87
2021/07/09 00:23:01;;;;;;;12.85;8.65;;;;;;;29.09;60.76;99652.44;4392471;32;32394;-87
2021/07/09 00:25:26;;;;;;;9.82;7.82;;;;;;;29.11;60.76;99649.63;4379496;32;20153;-86
2021/07/09 00:27:52;;;;;;;11.45;8.75;;;;;;;29.04;60.75;99650.28;4393221;32;20086;-86
2021/07/09 00:30:17;;;;;;;11.20;8.93;;;;;;;29.07;60.75;99653.62;4378884;32;20490;-87
2021/07/09 00:32:43;;;;;;;15.35;9.90;;;;;;;29.02;60.75;99652.28;4391404;32;32707;-86
2021/07/09 00:35:09;;;;;;;10.20;8.55;;;;;;;28.99;60.74;99641.09;4383345;32;20095;-85
2021/07/09 00:37:34;;;;;;;10.98;8.73;;;;;;;28.99;60.75;99636.56;4385895;32;20152;-85
2021/07/09 00:40:00;;;;;;;14.77;8.75;;;;;;;28.95;60.74;99632.56;4373060;32;20747;-85
2021/07/09 00:42:26;;;;;;;9.63;8.07;;;;;;;28.97;60.74;99635.91;4382350;32;20106;-85
2021/07/09 00:44:51;;;;;;;12.73;7.95;;;;;;;28.97;60.75;99630.53;4391762;32;21844;-85
2021/07/09 00:47:17;;;;;;;12.95;8.60;;;;;;;28.94;60.75;99630.88;4392212;32;20121;-86
2021/07/09 00:49:42;;;;;;;11.10;8.45;;;;;;;28.86;60.74;99625.50;4378674;32;22622;-86
2021/07/09 00:52:07;;;;;;;15.15;8.65;;;;;;;28.85;60.73;99622.97;4366837;32;20138;-86
2021/07/09 00:54:33;;;;;;;13.07;9.13;;;;;;;28.81;60.74;99627.00;4392250;32;25381;-86
2021/07/09 00:56:58;;;;;;;15.18;8.75;;;;;;;28.77;60.73;99636.38;4378781;32;21324;-87
2021/07/09 00:59:24;;;;;;;14.40;8.95;;;;;;;28.76;60.73;99624.84;4378411;32;32366;-86
2021/07/09 01:01:59;;;;;;;15.40;9.35;;;;;;;28.66;60.73;99632.22;4379035;32;20155;-86
2021/07/09 01:04:24;;;;;;;14.90;8.75;;;;;;;28.59;60.72;99633.88;4391754;32;20090;-86
2021/07/09 01:06:49;;;;;;;10.30;9.20;;;;;;;28.57;60.73;99630.53;4378552;32;21279;-86
2021/07/09 01:09:15;;;;;;;11.38;9.00;;;;;;;28.60;60.73;99636.38;4392847;32;20422;-87
2021/07/09 01:11:40;;;;;;;12.75;8.35;;;;;;;28.65;60.73;99630.53;4390901;32;34402;-86
2021/07/09 01:14:08;;;;;;;15.23;8.30;;;;;;;28.57;60.72;99631.38;4391136;32;20094;-85
2021/07/09 01:16:34;;;;;;;11.57;8.52;;;;;;;28.53;60.72;99623.84;4392810;32;20139;-86
2021/07/09 01:18:59;;;;;;;11.20;8.75;;;;;;;28.50;60.72;99625.00;4391329;32;20428;-86
2021/07/09 01:21:25;;;;;;;14.30;7.80;;;;;;;28.47;60.72;99621.84;4378593;32;20160;-87
2021/07/09 01:23:57;;;;;;;12.95;7.97;;;;;;;28.43;60.72;99614.16;4378543;32;20947;-86
2021/07/09 01:26:22;;;;;;;13.85;8.30;;;;;;;28.40;60.72;99619.84;4378906;32;20090;-86
2021/07/09 01:28:47;;;;;;;14.07;8.95;;;;;;;28.34;60.72;99628.50;4377947;32;34172;-87
2021/07/09 01:31:13;;;;;;;16.12;8.55;;;;;;;28.34;60.71;99625.84;4377848;32;23936;-86
2021/07/09 01:33:38;;;;;;;9.65;8.57;;;;;;;28.32;60.72;99621.66;4391275;32;20099;-87
2021/07/09 01:36:04;;;;;;;13.30;8.27;;;;;;;28.32;60.71;99627.00;4378826;32;20086;-86
2021/07/09 01:38:30;;;;;;;15.50;8.57;;;;;;;28.24;60.71;99629.66;4378644;32;20083;-86
2021/07/09 01:40:55;;;;;;;13.07;8.07;;;;;;;28.21;60.71;99630.81;4392604;32;20103;-86
2021/07/09 01:43:20;;;;;;;13.93;8.38;;;;;;;28.14;60.71;99630.63;4390993;32;20467;-86
2021/07/09 01:45:46;;;;;;;11.70;8.32;;;;;;;28.12;60.71;99624.59;4392492;32;20134;-86
2021/07/09 01:48:11;;;;;;;16.50;8.45;;;;;;;28.05;60.71;99630.78;4378332;32;24371;-86
2021/07/09 01:50:37;;;;;;;11.27;8.10;;;;;;;28.06;60.70;99624.41;4392706;32;20087;-86
2021/07/09 01:53:02;;;;;;;10.10;7.75;;;;;;;28.06;60.70;99629.78;4392113;32;30802;-86
2021/07/09 01:55:28;;;;;;;14.82;7.87;;;;;;;28.03;60.69;99630.94;4392533;32;20150;-86
2021/07/09 01:57:53;;;;;;;19.55;9.50;;;;;;;28.01;60.70;99632.09;4379096;32;20384;-86
2021/07/09 02:00:20;;;;;;;12.60;8.57;;;;;;;27.97;60.70;99628.09;4378862;32;20094;-86
2021/07/09 02:02:46;;;;;;;16.42;8.43;;;;;;;28.01;60.69;99629.44;4378607;32;20158;-87
2021/07/09 02:05:13;;;;;;;12.23;8.73;;;;;;;27.95;60.69;99630.94;4378511;32;20124;-86
2021/07/09 02:07:42;;;;;;;17.10;9.02;;;;;;;28.00;60.69;99623.25;4366069;32;20094;-86
2021/07/09 02:10:08;;;;;;;10.33;8.53;;;;;;;27.90;60.68;99624.38;4392397;32;20120;-86
2021/07/09 02:12:35;;;;;;;11.35;9.43;;;;;;;27.86;60.69;99623.88;4378493;32;20258;-86
2021/07/09 02:15:13;;;;;;;13.57;9.10;;;;;;;27.88;60.68;99621.84;4378587;32;20086;-87
2021/07/09 02:17:38;;;;;;;11.27;7.97;;;;;;;27.87;60.68;99619.34;4378419;32;20112;-87
2021/07/09 02:20:08;;;;;;;15.63;9.55;;;;;;;27.87;60.68;99619.34;4378389;32;20130;-86
2021/07/09 02:22:33;;;;;;;14.27;9.52;;;;;;;27.84;60.69;99615.16;4392130;32;20086;-86
2021/07/09 02:24:59;;;;;;;11.48;8.60;;;;;;;27.83;60.69;99616.16;4391947;32;20116;-86
2021/07/09 02:27:24;;;;;;;10.68;9.57;;;;;;;27.82;60.69;99611.81;4390834;32;20114;-86
2021/07/09 02:29:53;;;;;;;11.60;8.32;;;;;;;27.81;60.68;99612.81;4378309;32;20144;-86
2021/07/09 02:32:19;;;;;;;14.68;9.13;;;;;;;27.72;60.68;99620.00;4378286;32;20663;-87
2021/07/09 02:34:44;;;;;;;13.73;9.23;;;;;;;27.74;60.67;99618.00;4390543;32;20454;-86
2021/07/09 02:37:11;;;;;;;11.70;9.07;;;;;;;27.78;60.68;99618.50;4378107;32;20078;-86
2021/07/09 02:39:37;;;;;;;10.57;8.93;;;;;;;27.62;60.68;99626.41;4378217;32;20141;-86
2021/07/09 02:42:03;;;;;;;14.48;8.40;;;;;;;27.64;60.67;99622.63;4377571;32;20459;-87
2021/07/09 02:44:28;;;;;;;12.07;8.93;;;;;;;27.69;60.68;99625.66;4392103;32;20101;-86
2021/07/09 02:46:54;;;;;;;14.50;9.10;;;;;;;27.63;60.68;99623.62;4391950;32;20137;-85
2021/07/09 02:49:19;;;;;;;16.83;9.00;;;;;;;27.57;60.67;99624.25;4377989;32;20118;-85
2021/07/09 02:51:45;;;;;;;12.25;9.20;;;;;;;27.54;60.68;99621.88;4390701;32;20189;-85
2021/07/09 02:54:10;;;;;;;12.15;8.52;;;;;;;27.75;60.68;99614.31;4391145;32;27817;-85
2021/07/09 02:56:35;;;;;;;10.30;8.65;;;;;;;27.72;60.68;99611.13;4391461;32;21251;-85
2021/07/09 02:59:01;;;;;;;16.02;9.02;;;;;;;27.57;60.67;99604.69;4391816;32;20090;-85
2021/07/09 03:01:26;;;;;;;13.40;8.90;;;;;;;27.52;60.67;99611.34;4377263;32;30472;-85
2021/07/09 03:03:52;;;;;;;16.77;8.63;;;;;;;27.44;60.67;99605.13;4377200;32;33328;-86
2021/07/09 03:06:19;;;;;;;13.75;9.15;;;;;;;27.55;60.66;99607.53;4391819;32;20109;-86
2021/07/09 03:08:44;;;;;;;14.18;9.18;;;;;;;27.48;60.66;99612.69;4391681;32;20089;-86
2021/07/09 03:11:09;;;;;;;13.27;8.57;;;;;;;27.49;60.66;99608.16;4391538;32;20535;-87
2021/07/09 03:13:35;;;;;;;13.82;8.88;;;;;;;27.44;60.67;99610.47;4377426;32;22364;-86
2021/07/09 03:16:00;;;;;;;14.93;9.25;;;;;;;27.50;60.66;99609.84;4390472;32;20174;-86
2021/07/09 03:18:25;;;;;;;12.95;8.45;;;;;;;27.46;60.67;99613.84;4377860;32;20147;-86
2021/07/09 03:20:52;;;;;;;12.98;8.90;;;;;;;27.43;60.67;99616.81;4391304;32;20175;-86
2021/07/09 03:23:18;;;;;;;14.85;9.05;;;;;;;27.56;60.66;99622.56;4391677;32;20145;-86
2021/07/09 03:25:43;;;;;;;10.93;8.75;;;;;;;27.62;60.67;99623.75;4377164;32;29256;-85
2021/07/09 03:28:08;;;;;;;14.00;8.82;;;;;;;27.57;60.67;99624.25;4389484;32;36306;-85
2021/07/09 03:30:34;;;;;;;10.50;9.02;;;;;;;27.52;60.67;99626.56;4377107;32;26485;-86
2021/07/09 03:32:59;;;;;;;11.98;9.20;;;;;;;27.50;60.67;99617.88;4390940;32;20126;-86
2021/07/09 03:35:25;;;;;;;9.77;8.75;;;;;;;27.58;60.67;99625.06;4377114;32;28657;-85
2021/07/09 03:37:50;;;;;;;17.12;10.18;;;;;;;27.57;60.67;99604.69;4365033;32;20122;-85
2021/07/09 03:40:16;;;;;;;14.30;8.75;;;;;;;27.55;60.67;99609.34;4390621;32;33212;-85
2021/07/09 03:42:41;;;;;;;11.82;9.45;;;;;;;27.67;60.68;99597.37;4390139;32;20109;-86
2021/07/09 03:45:07;;;;;;;14.25;9.32;;;;;;;27.65;60.67;99604.72;4377526;32;20130;-87
2021/07/09 03:47:33;;;;;;;14.27;8.80;;;;;;;27.65;60.67;99612.75;4377620;32;20090;-86
2021/07/09 03:49:58;;;;;;;16.27;9.35;;;;;;;27.75;60.68;99613.47;4389816;32;20163;-85
2021/07/09 03:52:23;;;;;;;11.40;9.18;;;;;;;27.78;60.68;99618.50;4390761;32;30343;-86
2021/07/09 03:54:49;;;;;;;11.63;9.45;;;;;;;27.75;60.68;99625.00;4378333;32;39730;-86
2021/07/09 03:57:14;;;;;;;15.85;9.75;;;;;;;27.90;60.68;99621.69;4393028;32;20153;-85
2021/07/09 03:59:40;;;;;;;23.20;10.05;;;;;;;27.89;60.68;99612.84;4379153;32;20138;-86
2021/07/09 04:02:05;;;;;;;12.43;9.52;;;;;;;28.06;60.70;99614.56;4390989;32;30518;-86
2021/07/09 04:04:30;;;;;;;14.38;9.60;;;;;;;27.97;60.70;99622.75;4393058;32;20078;-87
2021/07/09 04:06:56;;;;;;;14.15;9.98;;;;;;;28.01;60.69;99613.37;4378308;32;33892;-86
2021/07/09 04:09:21;;;;;;;13.00;9.73;;;;;;;28.10;60.69;99623.09;4379225;32;20142;-88
2021/07/09 04:11:47;;;;;;;13.38;9.27;;;;;;;28.12;60.68;99624.59;4391858;32;20119;-90
2021/07/09 04:14:12;;;;;;;15.18;9.30;;;;;;;28.22;60.71;99626.31;4379124;32;20102;-88
2021/07/09 04:16:37;;;;;;;15.50;9.05;;;;;;;28.24;60.71;99618.94;4378787;32;20110;-89
2021/07/09 04:19:03;;;;;;;15.80;10.60;;;;;;;28.41;60.71;99621.50;4379127;32;20141;-89
2021/07/09 04:21:28;;;;;;;16.85;9.93;;;;;;;28.43;60.72;99626.69;4392108;32;29455;-87
2021/07/09 04:23:54;;;;;;;17.10;9.35;;;;;;;28.57;60.72;99620.66;4392716;32;20110;-88
2021/07/09 04:26:19;;;;;;;23.58;9.95;;;;;;;28.80;60.73;99612.78;4379219;32;20555;-88
2021/07/09 04:28:44;;;;;;;16.12;10.13;;;;;;;28.72;60.73;99602.91;4385618;32;20126;-89
2021/07/09 04:31:10;;;;;;;19.52;9.70;;;;;;;28.73;60.73;99601.06;4399909;32;20133;-85
2021/07/09 04:33:35;;;;;;;14.15;8.48;;;;;;;28.92;60.73;99597.22;4397454;32;26997;-85
2021/07/09 04:36:01;;;;;;;15.48;9.52;;;;;;;28.98;60.74;99599.22;4393523;32;20182;-86
2021/07/09 04:38:26;;;;;;;19.70;10.23;;;;;;;28.90;60.73;99593.88;4379426;32;24134;-86
2021/07/09 04:40:51;;;;;;;17.08;10.70;;;;;;;28.81;60.73;99602.88;4378881;32;20120;-86
2021/07/09 04:43:17;;;;;;;13.35;9.65;;;;;;;28.94;60.74;99614.81;4378283;32;23805;-86
2021/07/09 04:45:42;;;;;;;18.40;10.73;;;;;;;28.99;60.74;99614.28;4390888;32;20159;-86
2021/07/09 04:48:08;;;;;;;14.27;11.23;;;;;;;28.94;60.74;99596.06;4391836;32;29686;-86
2021/07/09 04:50:33;;;;;;;17.50;9.95;;;;;;;28.99;60.74;99588.31;4378910;32;20140;-86
2021/07/09 04:52:59;;;;;;;21.87;10.68;;;;;;;29.01;60.75;99596.19;4391333;32;20139;-85
2021/07/09 04:55:24;;;;;;;13.48;10.52;;;;;;;29.08;60.75;99609.75;4392561;32;20110;-86
2021/07/09 04:57:50;;;;;;;15.40;11.07;;;;;;;29.11;60.75;99612.09;4392456;32;20090;-86
2021/07/09 05:00:16;;;;;;;22.45;10.98;;;;;;;29.12;60.75;99617.28;4378736;32;20138;-86
2021/07/09 05:02:41;;;;;;;18.23;11.12;;;;;;;29.19;60.75;99620.94;4392533;32;20138;-87
2021/07/09 05:05:11;;;;;;;18.92;10.93;;;;;;;29.07;60.74;99624.97;4390780;32;20123;-87
2021/07/09 05:07:36;;;;;;;17.17;10.93;;;;;;;29.06;60.74;99636.72;4378674;32;20568;-87
2021/07/09 05:10:03;;;;;;;16.55;10.63;;;;;;;29.06;60.75;99634.03;4390968;32;20129;-86
2021/07/09 05:12:29;;;;;;;19.05;10.55;;;;;;;29.15;60.74;99640.22;4391063;32;20086;-87
2021/07/09 05:14:54;;;;;;;17.23;10.85;;;;;;;29.11;60.74;99638.91;4378303;32;20114;-87
2021/07/09 05:17:19;;;;;;;23.38;10.90;;;;;;;28.99;60.73;99638.41;4392342;32;20476;-87
2021/07/09 05:19:45;;;;;;;17.55;10.10;;;;;;;29.11;60.75;99633.53;4392051;32;20213;-84
2021/07/09 05:22:11;;;;;;;17.17;10.30;;;;;;;29.17;60.74;99628.31;4390991;32;20086;-85
2021/07/09 05:24:39;;;;;;;18.10;10.32;;;;;;;29.27;60.75;99623.59;4392257;32;20515;-85
2021/07/09 05:27:07;;;;;;;21.25;11.00;;;;;;;29.38;60.76;99618.88;4392364;32;20118;-85
2021/07/09 05:29:33;;;;;;;16.87;10.13;;;;;;;29.51;60.77;99628.06;4378007;32;20094;-85
2021/07/09 05:31:58;;;;;;;20.40;11.10;;;;;;;29.77;60.78;99618.91;4390906;32;20116;-85
2021/07/09 05:34:24;;;;;;;16.87;10.35;;;;;;;29.83;60.78;99608.31;4390304;32;20162;-86
2021/07/09 05:36:50;;;;;;;20.50;10.38;;;;;;;30.07;60.80;99606.53;4378318;32;20094;-85
2021/07/09 05:39:15;;;;;;;13.93;10.38;;;;;;;30.26;60.80;99616.78;4378451;32;20113;-86
2021/07/09 05:41:44;;;;;;;28.62;10.77;;;;;;;30.41;60.81;99625.75;4391810;32;20161;-86
2021/07/09 05:44:10;;;;;;;14.77;10.48;;;;;;;30.71;60.83;99632.06;4392023;32;20486;-86
2021/07/09 05:46:36;;;;;;;16.60;8.85;;;;;;;30.67;60.82;99625.41;4391767;32;20124;-85
2021/07/09 05:49:01;;;;;;;14.30;9.15;;;;;;;30.83;60.82;99619.87;4377979;32;21893;-87
2021/07/09 05:51:27;;;;;;;14.77;10.27;;;;;;;30.87;60.84;99614.13;4392040;32;20383;-87
2021/07/09 05:53:52;;;;;;;19.20;9.68;;;;;;;31.05;60.84;99612.78;4378065;32;20114;-87
2021/07/09 05:56:18;;;;;;;16.12;9.02;;;;;;;31.22;60.84;99618.00;4391448;32;27770;-87
2021/07/09 05:58:43;;;;;;;11.77;9.20;;;;;;;31.44;60.86;99622.44;4377691;32;26104;-88
2021/07/09 06:01:08;;;;;;;17.90;10.05;;;;;;;31.57;60.87;99627.19;4378102;32;20417;-88
2021/07/09 06:03:34;;;;;;;12.73;8.82;;;;;;;31.80;60.88;99625.22;4378387;32;20122;-87
2021/07/09 06:05:59;;;;;;;14.05;9.18;;;;;;;31.89;60.89;99634.00;4391374;32;34428;-88
2021/07/09 06:08:25;;;;;;;11.30;8.75;;;;;;;31.95;60.90;99630.59;4390934;32;20094;-87
2021/07/09 06:10:50;;;;;;;13.75;8.98;;;;;;;31.79;60.87;99628.09;4392239;32;20401;-88
2021/07/09 06:13:15;;;;;;;12.50;8.85;;;;;;;31.80;60.88;99640.53;4378165;32;20158;-87
2021/07/09 06:15:41;;;;;;;13.10;9.13;;;;;;;31.86;60.88;99634.41;4391399;32;20150;-88
2021/07/09 06:18:06;;;;;;;13.90;9.05;;;;;;;31.80;60.88;99632.47;4391515;32;20458;-87
2021/07/09 06:20:32;;;;;;;14.95;9.48;;;;;;;31.93;60.88;99641.50;4390949;32;20141;-87
2021/07/09 06:22:57;;;;;;;13.32;8.70;;;;;;;31.95;60.88;99641.34;4378202;32;20103;-88
2021/07/09 06:25:23;;;;;;;16.58;8.82;;;;;;;31.75;60.88;99641.09;4391849;32;20162;-87
2021/07/09 06:27:48;;;;;;;16.75;8.93;;;;;;;31.80;60.88;99636.00;4377843;32;21144;-88
2021/07/09 06:30:14;;;;;;;23.58;9.70;;;;;;;31.77;60.87;99628.28;4392129;32;20158;-87
2021/07/09 06:32:40;;;;;;;15.73;8.93;;;;;;;31.74;60.88;99624.12;4392140;32;20087;-87
2021/07/09 06:35:07;;;;;;;16.15;10.18;;;;;;;31.70;60.87;99603.94;4392191;32;20167;-87
2021/07/09 06:37:33;;;;;;;13.82;9.32;;;;;;;31.64;60.88;99611.94;4390726;32;20384;-87
2021/07/09 06:39:58;;;;;;;13.20;8.77;;;;;;;31.41;60.86;99606.69;4378245;32;20100;-87
2021/07/09 06:42:23;;;;;;;17.35;8.70;;;;;;;31.48;60.87;99606.78;4378041;32;20107;-87
2021/07/09 06:44:49;;;;;;;19.30;9.13;;;;;;;31.30;60.85;99608.00;4377793;32;20174;-87
2021/07/09 06:47:14;;;;;;;12.90;8.38;;;;;;;31.27;60.85;99608.38;4377340;32;30227;-87
2021/07/09 06:49:40;;;;;;;12.52;7.80;;;;;;;31.07;60.84;99596.47;4390553;32;20472;-88
2021/07/09 06:52:05;;;;;;;10.02;7.50;;;;;;;30.90;60.83;99597.63;4390674;32;20146;-87
2021/07/09 06:54:31;;;;;;;11.98;8.57;;;;;;;30.65;60.82;99602.41;4377920;32;20395;-87
2021/07/09 06:56:56;;;;;;;14.52;8.20;;;;;;;30.54;60.82;99592.91;4377042;32;36814;-86
2021/07/09 06:59:22;;;;;;;10.25;8.43;;;;;;;30.47;60.82;99605.37;4391936;32;20380;-87
2021/07/09 07:01:47;;;;;;;14.57;8.10;;;;;;;30.33;60.81;99616.94;4365122;32;22811;-87
2021/07/09 07:04:14;;;;;;;20.70;8.52;;;;;;;30.20;60.79;99610.28;4391824;32;20145;-87
2021/07/09 07:06:40;;;;;;;17.45;8.07;;;;;;;29.95;60.79;99614.94;4390649;32;20086;-86
2021/07/09 07:09:05;;;;;;;15.70;9.18;;;;;;;29.86;60.78;99628.59;4390489;32;20129;-88
2021/07/09 07:11:31;;;;;;;12.55;8.80;;;;;;;29.63;60.77;99642.78;4364827;32;25780;-87
2021/07/09 07:13:56;;;;;;;18.35;8.88;;;;;;;29.35;60.76;99638.84;4391733;32;20113;-87
2021/07/09 07:16:22;;;;;;;16.30;9.20;;;;;;;29.24;60.75;99639.19;4391264;32;21441;-87
2021/07/09 07:18:47;;;;;;;12.27;8.25;;;;;;;28.94;60.75;99644.28;4391007;32;29984;-88
2021/07/09 07:21:12;;;;;;;23.70;9.85;;;;;;;28.90;60.73;99659.03;4364687;32;36483;-87
2021/07/09 07:23:38;;;;;;;17.15;10.32;;;;;;;28.79;60.73;99664.69;4390275;32;20098;-87
2021/07/09 07:26:03;;;;;;;16.05;10.02;;;;;;;28.72;60.73;99680.59;4377887;32;20078;-88
2021/07/09 07:28:29;;;;;;;12.95;8.45;;;;;;;28.61;60.72;99688.09;4391289;32;20139;-87
2021/07/09 07:30:54;;;;;;;19.87;8.95;;;;;;;28.50;60.72;99672.38;4377630;32;20113;-88
2021/07/09 07:33:19;;;;;;;16.83;9.50;;;;;;;28.39;60.72;99676.19;4377526;32;20134;-89
2021/07/09 07:35:45;;;;;;;19.98;10.05;;;;;;;28.26;60.70;99679.38;4377948;32;20225;-88
2021/07/09 07:38:10;;;;;;;15.80;10.43;;;;;;;28.04;60.69;99678.09;4365207;32;20161;-88
2021/07/09 07:40:36;;;;;;;17.55;9.52;;;;;;;27.85;60.69;99672.19;4377714;32;20229;-88
2021/07/09 07:43:01;;;;;;;16.58;9.25;;;;;;;27.68;60.68;99676.62;4391672;32;20353;-88
2021/07/09 07:45:27;;;;;;;15.77;9.20;;;;;;;27.58;60.66;99673.22;4377550;32;20114;-87
2021/07/09 07:47:52;;;;;;;12.90;8.95;;;;;;;27.46;60.66;99654.78;4377510;32;20451;-88
2021/07/09 07:50:21;;;;;;;20.48;9.18;;;;;;;27.43;60.65;99657.75;4377536;32;20147;-88
2021/07/09 07:52:49;;;;;;;14.50;9.52;;;;;;;27.46;60.66;99680.69;4377850;32;20160;-87
2021/07/09 07:55:15;;;;;;;12.88;9.00;;;;;;;27.39;60.66;99669.75;4377233;32;20437;-87
2021/07/09 07:57:41;;;;;;;12.70;10.00;;;;;;;27.40;60.66;99658.06;4390017;32;20518;-87
2021/07/09 08:00:07;;;;;;;13.20;8.60;;;;;;;27.45;60.67;99654.94;4377194;32;20106;-86
2021/07/09 08:02:32;;;;;;;14.18;9.45;;;;;;;27.34;60.67;99641.84;4390276;32;20118;-87
2021/07/09 08:04:58;;;;;;;20.12;9.90;;;;;;;27.40;60.66;99631.34;4394672;32;28973;-86
2021/07/09 08:07:23;;;;;;;12.70;9.80;;;;;;;27.50;60.67;99642.75;4384008;32;20436;-86
2021/07/09 08:09:48;;;;;;;15.75;10.15;;;;;;;27.61;60.67;99654.16;4398032;32;20146;-86
2021/07/09 08:12:14;;;;;;;16.37;9.65;;;;;;;27.69;60.67;99656.94;4391649;32;30697;-86
2021/07/09 08:14:39;;;;;;;22.90;10.27;;;;;;;27.52;60.67;99654.12;4377125;32;20144;-86
2021/07/09 08:17:05;;;;;;;22.23;10.98;;;;;;;27.73;60.67;99664.47;4376686;32;20727;-86
2021/07/09 08:19:30;;;;;;;22.00;10.43;;;;;;;27.82;60.67;99678.69;4376501;32;24209;-86
2021/07/09 08:21:56;;;;;;;19.05;10.18;;;;;;;28.06;60.68;99686.81;4377097;32;20148;-86
2021/07/09 08:24:21;;;;;;;12.43;9.07;;;;;;;28.38;60.71;99686.06;4376423;32;20458;-86
2021/07/09 08:26:47;;;;;;;14.07;9.15;;;;;;;28.60;60.71;99689.94;4376136;32;30569;-86
2021/07/09 08:29:12;;;;;;;13.60;9.02;;;;;;;28.69;60.73;99688.97;4389404;32;20133;-86
2021/07/09 08:31:37;;;;;;;16.23;9.18;;;;;;;28.80;60.73;99693.12;4376178;32;29458;-86
2021/07/09 08:34:03;;;;;;;12.98;8.75;;;;;;;28.89;60.73;99692.19;4376742;32;20126;-86
2021/07/09 08:36:28;;;;;;;14.98;8.85;;;;;;;29.22;60.74;99695.66;4390650;32;20090;-86
2021/07/09 08:38:54;;;;;;;19.33;9.00;;;;;;;29.57;60.77;99699.78;4376558;32;20102;-86
2021/07/09 08:41:20;;;;;;;14.07;8.60;;;;;;;29.75;60.77;99704.94;4378607;32;20532;-86
2021/07/09 08:43:45;;;;;;;15.05;8.57;;;;;;;29.99;60.78;99713.91;4391555;32;20134;-86
2021/07/09 08:46:11;;;;;;;16.55;8.70;;;;;;;30.32;60.80;99709.25;4392911;32;20102;-86
2021/07/09 08:48:36;;;;;;;16.25;8.18;;;;;;;30.60;60.81;99699.66;4391216;32;20389;-86
2021/07/09 08:51:02;;;;;;;10.85;8.40;;;;;;;30.76;60.82;99704.09;4392809;32;20098;-87
2021/07/09 08:53:28;;;;;;;14.23;7.53;;;;;;;31.01;60.83;99700.19;4378740;32;20498;-86
2021/07/09 08:55:53;;;;;;;11.65;7.32;;;;;;;31.15;60.84;99702.06;4392643;32;20160;-87
2021/07/09 08:58:18;;;;;;;16.80;7.62;;;;;;;31.37;60.85;99703.06;4378353;32;20173;-87
2021/07/09 09:00:45;;;;;;;11.73;7.80;;;;;;;31.48;60.85;99703.63;4378321;32;23335;-87
2021/07/09 09:03:11;;;;;;;10.60;7.82;;;;;;;31.54;60.86;99694.81;4392897;32;20113;-87
2021/07/09 09:05:37;;;;;;;11.15;7.12;;;;;;;31.63;60.86;99689.13;4391352;32;20102;-87
2021/07/09 09:08:06;;;;;;;12.55;7.25;;;;;;;31.69;60.87;99674.09;4392256;32;20205;-87
2021/07/09 09:10:41;;;;;;;11.60;7.95;;;;;;;31.65;60.85;99675.50;4391430;32;20406;-87
2021/07/09 09:13:10;;;;;;;16.83;8.27;;;;;;;31.79;60.87;99677.38;4392508;32;20078;-87
2021/07/09 09:15:36;;;;;;;17.57;8.37;;;;;;;31.92;60.88;99682.09;4391525;32;20593;-87
2021/07/09 09:18:25;;;;;;;14.75;7.72;;;;;;;32.02;60.88;99679.94;4391278;32;20138;-87
2021/07/09 09:20:57;;;;;;;9.43;7.75;;;;;;;32.07;60.89;99674.81;4381716;32;20521;-87
2021/07/09 09:23:23;;;;;;;14.77;8.32;;;;;;;32.12;60.88;99663.47;4391357;32;20443;-87
2021/07/09 09:25:48;;;;;;;16.58;8.88;;;;;;;32.00;60.88;99657.78;4378621;32;20121;-87
2021/07/09 09:28:13;;;;;;;18.75;8.80;;;;;;;31.58;60.86;99661.97;4392128;32;20098;-87
2021/07/09 09:30:40;;;;;;;10.05;7.97;;;;;;;31.58;60.86;99655.75;4393110;32;20505;-87
2021/07/09 09:33:10;;;;;;;15.05;8.95;;;;;;;31.40;60.85;99650.75;4379014;32;20101;-87
2021/07/09 09:35:37;;;;;;;;;;;;;;;31.30;60.85;99634.06;4379507;32;20229;-87
2021/07/09 09:38:04;;;;;;;19.00;8.95;;;;;;;31.19;60.85;99629.94;4378905;32;20020;-86
2021/07/09 09:40:30;;;;;;;15.25;8.18;;;;;;;31.14;60.84;99640.41;4379111;32;20102;-87
2021/07/09 09:42:55;;;;;;;15.40;8.38;;;;;;;30.97;60.83;99646.94;4379363;32;20367;-87
2021/07/09 09:45:25;;;;;;;11.57;8.70;;;;;;;30.89;60.83;99641.66;4378437;32;20660;-87
2021/07/09 09:47:50;;;;;;;20.98;8.15;;;;;;;30.61;60.81;99625.28;4391073;32;20110;-87
2021/07/09 09:50:18;;;;;;;16.33;8.60;;;;;;;30.44;60.80;99611.13;4392119;32;20459;-87
2021/07/09 09:52:45;;;;;;;14.15;8.57;;;;;;;30.19;60.79;99605.94;4392264;32;20102;-87
2021/07/09 09:55:17;;;;;;;16.05;8.77;;;;;;;29.92;60.78;99596.53;4378361;32;20467;-87
2021/07/09 09:57:43;;;;;;;14.05;8.98;;;;;;;29.83;60.79;99591.38;4378285;32;20584;-88
2021/07/09 10:00:12;;;;;;;15.40;8.68;;;;;;;29.77;60.78;99592.06;4378562;32;20612;-87
2021/07/09 10:02:38;;;;;;;13.27;9.17;;;;;;;29.74;60.78;99605.84;4390819;32;20134;-87
2021/07/09 10:05:04;;;;;;;15.45;9.48;;;;;;;29.80;60.77;99615.88;4392137;32;20225;-87
2021/07/09 10:07:35;;;;;;;16.75;9.45;;;;;;;29.71;60.77;99628.50;4378421;32;20411;-87
2021/07/09 10:10:01;;;;;;;22.80;10.13;;;;;;;30.03;60.79;99635.56;4378664;32;20710;-87
2021/07/09 10:12:26;;;;;;;14.32;9.52;;;;;;;30.35;60.80;99637.22;4378374;32;20113;-87
2021/07/09 10:14:51;;;;;;;20.12;9.18;;;;;;;30.65;60.82;99646.25;4377599;32;30455;-87
2021/07/09 10:17:17;;;;;;;15.10;8.63;;;;;;;30.95;60.83;99624.78;4378341;32;20166;-87
2021/07/09 10:19:45;;;;;;;16.52;9.93;;;;;;;31.27;60.85;99629.06;4390928;32;20597;-87
2021/07/09 10:22:11;;;;;;;19.75;9.25;;;;;;;31.58;60.86;99628.84;4390839;32;20102;-87
2021/07/09 10:24:40;;;;;;;13.82;8.98;;;;;;;31.80;60.88;99622.53;4392010;32;20178;-87
2021/07/09 10:27:06;;;;;;;19.80;9.05;;;;;;;32.17;60.89;99612.56;4378401;32;20511;-89
2021/07/09 10:29:33;;;;;;;15.63;9.18;;;;;;;32.27;60.89;99616.66;4378223;32;20169;-88
2021/07/09 10:32:01;;;;;;;15.65;8.38;;;;;;;32.64;60.91;99612.00;4378312;32;20121;-88
2021/07/09 10:34:27;;;;;;;11.73;7.60;;;;;;;32.91;60.92;99611.22;4378397;32;20102;-87
2021/07/09 10:36:58;;;;;;;13.02;7.45;;;;;;;33.20;60.94;99610.16;4391970;32;20102;-87
2021/07/09 10:39:30;;;;;;;13.23;7.55;;;;;;;33.44;60.95;99618.84;4378307;32;20483;-87
2021/07/09 10:41:55;;;;;;;12.68;8.00;;;;;;;33.62;60.96;99610.22;4391925;32;20175;-87
2021/07/09 10:44:21;;;;;;;10.23;7.47;;;;;;;33.60;60.96;99618.50;4377842;32;20134;-86
2021/07/09 10:46:47;;;;;;;15.77;7.78;;;;;;;33.83;60.97;99613.66;4377551;32;22822;-87
2021/07/09 10:49:51;;;;;;;11.05;7.35;;;;;;;33.78;60.96;99616.06;4378339;32;20119;-86
2021/07/09 10:52:41;;;;;;;15.52;7.50;;;;;;;34.01;60.98;99625.72;4391833;32;20119;-87
2021/07/09 10:55:37;;;;;;;15.05;8.10;;;;;;;33.94;60.97;99622.19;4391737;32;20391;-86
2021/07/09 10:58:09;;;;;;;16.73;7.47;;;;;;;33.90;60.98;99635.28;4379597;32;20118;-86
2021/07/09 11:00:59;;;;;;;12.88;7.68;;;;;;;34.00;60.98;99632.16;4377973;32;20140;-88
2021/07/09 11:03:37;;;;;;;11.73;7.20;;;;;;;33.93;60.98;99637.56;4391250;32;20166;-86
2021/07/09 11:06:10;;;;;;;14.70;7.55;;;;;;;33.82;60.97;99636.22;4390727;32;20121;-86
2021/07/09 11:08:37;;;;;;;13.25;7.72;;;;;;;33.74;60.97;99639.12;4365570;32;20177;-86
2021/07/09 11:11:05;;;;;;;17.60;7.97;;;;;;;33.57;60.97;99635.09;4378048;32;20188;-86
2021/07/09 11:13:39;;;;;;;18.25;7.50;;;;;;;33.51;60.96;99619.69;4378048;32;20089;-86
2021/07/09 11:16:31;;;;;;;10.70;7.70;;;;;;;33.43;60.96;99627.97;4391936;32;20106;-86
2021/07/09 11:19:00;;;;;;;14.27;7.35;;;;;;;33.55;60.96;99618.25;4374003;32;20180;-86
2021/07/09 11:21:31;;;;;;;11.20;7.37;;;;;;;33.61;60.96;99625.56;4391526;32;20167;-86